createdAt,value
2023-04-22T00:00:55.958Z,4.7
2023-04-22T00:02:04.548Z,4.6
2023-04-22T00:03:12.916Z,4.6
2023-04-22T00:04:21.378Z,4.6
2023-04-22T00:05:29.847Z,4.6
2023-04-22T00:06:38.114Z,4.6
2023-04-22T00:07:46.474Z,4.6
2023-04-22T00:08:55.025Z,4.7
2023-04-22T00:10:03.382Z,4.7
2023-04-22T00:11:11.690Z,4.7
2023-04-22T00:12:20.258Z,4.8
2023-04-22T00:13:28.572Z,4.8
2023-04-22T00:14:36.917Z,4.8
2023-04-22T00:15:45.501Z,4.9
2023-04-22T00:16:53.798Z,4.9
2023-04-22T00:18:02.221Z,4.9
2023-04-22T00:19:10.692Z,4.6
2023-04-22T00:20:19.037Z,4.6
2023-04-22T00:21:27.424Z,4.6
2023-04-22T00:22:35.934Z,4.6
2023-04-22T00:23:44.274Z,4.6
2023-04-22T00:24:52.610Z,4.6
2023-04-22T00:26:01.170Z,4.7
2023-04-22T00:27:09.479Z,4.7
2023-04-22T00:28:17.838Z,4.7
2023-04-22T00:29:26.392Z,4.8
2023-04-22T00:30:34.723Z,4.8
2023-04-22T00:31:43.109Z,4.8
2023-04-22T00:32:51.624Z,5.2
2023-04-22T00:34:00.004Z,5.2
2023-04-22T00:35:08.368Z,5.2
2023-04-22T00:36:16.884Z,4.5
2023-04-22T00:37:25.216Z,4.5
2023-04-22T00:38:33.558Z,4.5
2023-04-22T00:39:42.458Z,4.6
2023-04-22T00:40:50.451Z,4.6
2023-04-22T00:41:58.830Z,4.6
2023-04-22T00:43:07.335Z,5.1
2023-04-22T00:44:15.685Z,5.1
2023-04-22T00:45:24.033Z,5.1
2023-04-22T00:46:32.602Z,5
2023-04-22T00:47:40.956Z,5
2023-04-22T00:48:49.275Z,5
2023-04-22T00:49:57.833Z,4.4
2023-04-22T00:51:06.175Z,4.4
2023-04-22T00:52:14.517Z,4.4
2023-04-22T00:53:23.073Z,5.1
2023-04-22T00:54:31.415Z,5.1
2023-04-22T00:55:39.799Z,5.1
2023-04-22T00:56:48.310Z,5
2023-04-22T00:57:56.665Z,5
2023-04-22T00:59:04.973Z,5
2023-04-22T01:00:13.530Z,4.6
2023-04-22T01:01:21.927Z,4.6
2023-04-22T01:02:30.283Z,4.6
2023-04-22T01:03:38.993Z,4.3
2023-04-22T01:04:47.111Z,4.3
2023-04-22T01:05:55.459Z,4.3
2023-04-22T01:07:04.019Z,4.9
2023-04-22T01:08:12.378Z,4.9
2023-04-22T01:09:20.743Z,4.9
2023-04-22T01:10:29.282Z,4.5
2023-04-22T01:11:37.604Z,4.5
2023-04-22T01:12:45.953Z,4.5
2023-04-22T01:13:54.513Z,4.6
2023-04-22T01:15:04.607Z,4.6
2023-04-22T01:16:11.183Z,4.6
2023-04-22T01:17:19.754Z,4.9
2023-04-22T01:18:28.063Z,4.9
2023-04-22T01:19:36.486Z,4.9
2023-04-22T01:20:44.969Z,5.3
2023-04-22T01:21:53.297Z,5.3
2023-04-22T01:23:01.635Z,5.3
2023-04-22T01:24:10.217Z,4.7
2023-04-22T01:25:18.536Z,4.7
2023-04-22T01:26:26.891Z,4.7
2023-04-22T01:27:35.436Z,5.4
2023-04-22T01:28:43.792Z,5.4
2023-04-22T01:29:52.135Z,5.4
2023-04-22T01:31:00.637Z,4.5
2023-04-22T01:32:09.006Z,4.5
2023-04-22T01:33:17.447Z,4.5
2023-04-22T01:34:25.881Z,4.8
2023-04-22T01:35:34.194Z,4.8
2023-04-22T01:36:42.539Z,4.8
2023-04-22T01:37:51.128Z,5.4
2023-04-22T01:38:59.461Z,5.4
2023-04-22T01:40:07.798Z,5.4
2023-04-22T01:41:16.343Z,4.7
2023-04-22T01:42:24.688Z,4.7
2023-04-22T01:43:33.049Z,4.7
2023-04-22T01:44:41.585Z,4.6
2023-04-22T01:45:50.012Z,4.6
2023-04-22T01:46:58.254Z,4.6
2023-04-22T01:48:06.915Z,4.9
2023-04-22T01:49:15.156Z,4.9
2023-04-22T01:50:23.479Z,4.9
2023-04-22T01:51:32.003Z,5.1
2023-04-22T01:52:40.343Z,5.1
2023-04-22T01:53:48.683Z,5.1
2023-04-22T01:54:57.218Z,4.8
2023-04-22T01:56:05.553Z,4.8
2023-04-22T01:57:13.962Z,4.8
2023-04-22T01:58:22.450Z,4.5
2023-04-22T01:59:30.772Z,4.5
2023-04-22T02:00:39.110Z,4.5
2023-04-22T02:01:47.692Z,4.8
2023-04-22T02:02:56.095Z,4.8
2023-04-22T02:04:04.357Z,4.8
2023-04-22T02:05:12.949Z,4.7
2023-04-22T02:06:21.261Z,4.7
2023-04-22T02:07:29.579Z,4.7
2023-04-22T02:08:38.147Z,4.7
2023-04-22T02:09:47.793Z,4.7
2023-04-22T02:10:54.846Z,4.7
2023-04-22T02:12:03.385Z,4.6
2023-04-22T02:13:11.753Z,4.6
2023-04-22T02:14:20.081Z,4.6
2023-04-22T02:15:28.613Z,5.3
2023-04-22T02:16:36.959Z,5.3
2023-04-22T02:17:45.314Z,5.3
2023-04-22T02:18:53.850Z,4.7
2023-04-22T02:20:02.215Z,4.7
2023-04-22T02:21:10.512Z,4.7
2023-04-22T02:22:19.066Z,4.8
2023-04-22T02:23:27.420Z,4.8
2023-04-22T02:24:35.801Z,4.8
2023-04-22T02:25:44.323Z,4.9
2023-04-22T02:26:52.664Z,4.9
2023-04-22T02:28:01.019Z,4.9
2023-04-22T02:29:09.559Z,4.8
2023-04-22T02:30:17.897Z,4.8
2023-04-22T02:31:26.241Z,4.8
2023-04-22T02:32:34.776Z,5
2023-04-22T02:33:43.146Z,5
2023-04-22T02:34:51.452Z,5
2023-04-22T02:35:59.988Z,4.8
2023-04-22T02:37:08.321Z,4.8
2023-04-22T02:38:16.664Z,4.8
2023-04-22T02:39:25.194Z,4.9
2023-04-22T02:40:33.528Z,4.9
2023-04-22T02:41:41.863Z,4.9
2023-04-22T02:42:50.417Z,5.1
2023-04-22T02:43:58.741Z,5.1
2023-04-22T02:45:07.077Z,5.1
2023-04-22T02:46:15.628Z,5.4
2023-04-22T02:47:23.957Z,5.4
2023-04-22T02:48:32.293Z,5.4
2023-04-22T02:49:41.286Z,5.4
2023-04-22T02:50:49.158Z,5.4
2023-04-22T02:51:57.471Z,5.4
2023-04-22T02:53:06.034Z,5
2023-04-22T02:54:14.368Z,5
2023-04-22T02:55:22.694Z,5
2023-04-22T02:56:31.235Z,4.9
2023-04-22T02:57:39.584Z,4.9
2023-04-22T02:58:47.912Z,4.9
2023-04-22T02:59:56.471Z,4.5
2023-04-22T03:01:04.832Z,4.5
2023-04-22T03:02:13.186Z,4.5
2023-04-22T03:03:21.777Z,5.2
2023-04-22T03:04:30.060Z,5.2
2023-04-22T03:05:38.372Z,5.2
2023-04-22T03:06:46.914Z,5.1
2023-04-22T03:07:55.262Z,5.1
2023-04-22T03:09:03.603Z,5.1
2023-04-22T03:10:12.150Z,5.4
2023-04-22T03:11:20.504Z,5.4
2023-04-22T03:12:28.840Z,5.4
2023-04-22T03:13:37.378Z,5.1
2023-04-22T03:14:45.745Z,5.1
2023-04-22T03:15:54.063Z,5.1
2023-04-22T03:17:02.856Z,4.9
2023-04-22T03:18:10.969Z,4.9
2023-04-22T03:19:19.301Z,4.9
2023-04-22T03:20:27.841Z,5.2
2023-04-22T03:21:36.202Z,5.2
2023-04-22T03:22:44.517Z,5.2
2023-04-22T03:23:53.056Z,4.9
2023-04-22T03:25:01.384Z,4.9
2023-04-22T03:26:09.718Z,4.9
2023-04-22T03:27:18.258Z,4.7
2023-04-22T03:28:26.629Z,4.7
2023-04-22T03:29:34.958Z,4.7
2023-04-22T03:30:43.501Z,4.7
2023-04-22T03:31:51.947Z,4.7
2023-04-22T03:33:00.245Z,4.7
2023-04-22T03:34:08.747Z,5.1
2023-04-22T03:35:17.090Z,5.1
2023-04-22T03:36:25.423Z,5.1
2023-04-22T03:37:34.002Z,5
2023-04-22T03:38:42.339Z,5
2023-04-22T03:39:50.670Z,5
2023-04-22T03:40:59.230Z,5.1
2023-04-22T03:42:07.556Z,5.1
2023-04-22T03:43:15.891Z,5.1
2023-04-22T03:44:24.435Z,5.3
2023-04-22T03:45:32.854Z,5.3
2023-04-22T03:46:41.104Z,5.3
2023-04-22T03:47:49.682Z,4.7
2023-04-22T03:48:57.974Z,4.7
2023-04-22T03:50:06.354Z,4.7
2023-04-22T03:51:14.882Z,5.4
2023-04-22T03:52:23.220Z,5.4
2023-04-22T03:53:31.571Z,5.4
2023-04-22T03:54:40.117Z,5.3
2023-04-22T03:55:48.427Z,5.3
2023-04-22T03:56:56.777Z,5.3
2023-04-22T03:58:05.336Z,5.3
2023-04-22T03:59:13.678Z,5.3
2023-04-22T04:00:22.008Z,5.3
2023-04-22T04:01:30.546Z,5.4
2023-04-22T04:02:38.998Z,5.4
2023-04-22T04:03:47.318Z,5.4
2023-04-22T04:04:56.039Z,5.1
2023-04-22T04:06:04.211Z,5.1
2023-04-22T04:07:12.432Z,5.1
2023-04-22T04:08:20.983Z,5.2
2023-04-22T04:09:29.360Z,5.2
2023-04-22T04:10:37.673Z,5.2
2023-04-22T04:11:46.242Z,5.1
2023-04-22T04:12:54.600Z,5.1
2023-04-22T04:14:02.918Z,5.1
2023-04-22T04:15:11.467Z,5.5
2023-04-22T04:16:19.823Z,5.5
2023-04-22T04:17:28.178Z,5.5
2023-04-22T04:18:36.693Z,4.7
2023-04-22T04:19:45.014Z,4.7
2023-04-22T04:20:53.344Z,4.7
2023-04-22T04:22:02.107Z,5.7
2023-04-22T04:23:10.253Z,5.7
2023-04-22T04:24:18.580Z,5.7
2023-04-22T04:25:27.148Z,5.5
2023-04-22T04:26:35.460Z,5.5
2023-04-22T04:27:43.799Z,5.5
2023-04-22T04:28:52.330Z,5.2
2023-04-22T04:30:00.676Z,5.2
2023-04-22T04:31:09.052Z,5.2
2023-04-22T04:32:17.584Z,5.4
2023-04-22T04:33:25.918Z,5.4
2023-04-22T04:34:34.266Z,5.4
2023-04-22T04:35:42.796Z,5.2
2023-04-22T04:36:51.123Z,5.2
2023-04-22T04:37:59.463Z,5.2
2023-04-22T04:39:08.242Z,5.2
2023-04-22T04:40:16.574Z,5.2
2023-04-22T04:41:24.971Z,5.2
2023-04-22T04:42:33.492Z,5.4
2023-04-22T04:43:41.848Z,5.4
2023-04-22T04:44:50.193Z,5.4
2023-04-22T04:45:58.757Z,5.1
2023-04-22T04:47:07.081Z,5.1
2023-04-22T04:48:15.416Z,5.1
2023-04-22T04:49:23.965Z,5.4
2023-04-22T04:50:32.311Z,5.4
2023-04-22T04:51:40.638Z,5.4
2023-04-22T04:52:49.193Z,5.2
2023-04-22T04:53:57.547Z,5.2
2023-04-22T04:55:05.908Z,5.2
2023-04-22T04:56:14.464Z,5.6
2023-04-22T04:57:22.834Z,5.6
2023-04-22T04:58:31.136Z,5.6
2023-04-22T04:59:39.883Z,5
2023-04-22T05:00:48.013Z,5
2023-04-22T05:01:56.425Z,5
2023-04-22T05:03:05.027Z,5
2023-04-22T05:04:13.364Z,5
2023-04-22T05:05:21.564Z,5
2023-04-22T05:06:30.108Z,5
2023-04-22T05:07:38.453Z,5
2023-04-22T05:08:46.799Z,5
2023-04-22T05:09:55.345Z,5.2
2023-04-22T05:11:03.677Z,5.2
2023-04-22T05:12:12.058Z,5.2
2023-04-22T05:13:20.622Z,5.7
2023-04-22T05:14:28.932Z,5.7
2023-04-22T05:15:37.267Z,5.7
2023-04-22T05:16:45.836Z,5.1
2023-04-22T05:17:54.173Z,5.1
2023-04-22T05:19:02.489Z,5.1
2023-04-22T05:20:11.028Z,5.8
2023-04-22T05:21:19.385Z,5.8
2023-04-22T05:22:27.719Z,5.8
2023-04-22T05:23:36.246Z,5.6
2023-04-22T05:24:44.573Z,5.6
2023-04-22T05:25:53.475Z,5.6
2023-04-22T05:27:01.441Z,4.6
2023-04-22T05:28:09.781Z,4.6
2023-04-22T05:29:18.136Z,4.6
2023-04-22T05:30:26.656Z,5.3
2023-04-22T05:31:35.023Z,5.3
2023-04-22T05:32:43.397Z,5.3
2023-04-22T05:33:51.932Z,5.3
2023-04-22T05:35:00.226Z,5.3
2023-04-22T05:36:08.571Z,5.3
2023-04-22T05:37:17.139Z,5.5
2023-04-22T05:38:25.482Z,5.5
2023-04-22T05:39:33.805Z,5.5
2023-04-22T05:40:42.342Z,5.5
2023-04-22T05:41:50.683Z,5.5
2023-04-22T05:42:59.025Z,5.5
2023-04-22T05:44:07.579Z,5.4
2023-04-22T05:45:15.912Z,5.4
2023-04-22T05:46:24.265Z,5.4
2023-04-22T05:47:32.822Z,5.7
2023-04-22T05:48:41.141Z,5.7
2023-04-22T05:49:49.496Z,5.7
2023-04-22T05:50:58.018Z,5.8
2023-04-22T05:52:06.344Z,5.8
2023-04-22T05:53:14.688Z,5.8
2023-04-22T05:54:23.254Z,5.6
2023-04-22T05:55:31.550Z,5.6
2023-04-22T05:56:39.891Z,5.6
2023-04-22T05:57:48.852Z,5.7
2023-04-22T05:58:57.170Z,5.7
2023-04-22T06:00:05.522Z,5.7
2023-04-22T06:01:14.388Z,5.7
2023-04-22T06:02:22.712Z,5.7
2023-04-22T06:03:31.157Z,5.7
2023-04-22T06:04:39.826Z,5.6
2023-04-22T06:05:47.911Z,5.6
2023-04-22T06:06:56.211Z,5.6
2023-04-22T06:08:04.758Z,5.4
2023-04-22T06:09:13.083Z,5.4
2023-04-22T06:10:21.407Z,5.4
2023-04-22T06:11:29.966Z,5.4
2023-04-22T06:12:38.332Z,5.4
2023-04-22T06:13:46.667Z,5.4
2023-04-22T06:14:55.195Z,6
2023-04-22T06:16:03.556Z,6
2023-04-22T06:17:11.909Z,6
2023-04-22T06:18:20.428Z,5.3
2023-04-22T06:19:28.764Z,5.3
2023-04-22T06:20:37.102Z,5.3
2023-04-22T06:21:45.659Z,5.3
2023-04-22T06:22:53.995Z,5.3
2023-04-22T06:24:02.313Z,5.3
2023-04-22T06:25:10.873Z,5.4
2023-04-22T06:26:19.207Z,5.4
2023-04-22T06:27:27.566Z,5.4
2023-04-22T06:28:36.130Z,5.5
2023-04-22T06:29:44.453Z,5.5
2023-04-22T06:30:52.791Z,5.5
2023-04-22T06:32:01.333Z,5.3
2023-04-22T06:33:09.760Z,5.3
2023-04-22T06:34:17.998Z,5.3
2023-04-22T06:35:26.545Z,5.1
2023-04-22T06:36:34.857Z,5.1
2023-04-22T06:37:43.190Z,5.1
2023-04-22T06:38:51.731Z,5.4
2023-04-22T06:40:00.072Z,5.4
2023-04-22T06:41:08.391Z,5.4
2023-04-22T06:42:16.953Z,5.3
2023-04-22T06:43:25.271Z,5.3
2023-04-22T06:44:33.613Z,5.3
2023-04-22T06:45:42.164Z,5
2023-04-22T06:46:50.545Z,5
2023-04-22T06:47:58.999Z,5
2023-04-22T06:49:07.387Z,4.9
2023-04-22T06:50:15.705Z,4.9
2023-04-22T06:51:24.192Z,4.9
2023-04-22T06:52:32.755Z,5.2
2023-04-22T06:53:41.101Z,5.2
2023-04-22T06:54:49.450Z,5.2
2023-04-22T06:55:57.992Z,5.8
2023-04-22T06:57:06.926Z,5.8
2023-04-22T06:58:15.269Z,5.8
2023-04-22T06:59:23.838Z,5
2023-04-22T07:00:32.188Z,5
2023-04-22T07:01:40.566Z,5
2023-04-22T07:02:49.091Z,5.5
2023-04-22T07:03:57.434Z,5.5
2023-04-22T07:05:05.739Z,5.5
2023-04-22T07:06:14.270Z,5.1
2023-04-22T07:07:22.604Z,5.1
2023-04-22T07:08:30.930Z,5.1
2023-04-22T07:09:39.703Z,6
2023-04-22T07:10:47.802Z,6
2023-04-22T07:11:56.149Z,6
2023-04-22T07:13:04.699Z,5.5
2023-04-22T07:14:13.020Z,5.5
2023-04-22T07:15:21.353Z,5.5
2023-04-22T07:16:29.930Z,6
2023-04-22T07:17:38.281Z,6
2023-04-22T07:18:46.584Z,6
2023-04-22T07:19:55.115Z,6.4
2023-04-22T07:21:03.468Z,6.4
2023-04-22T07:22:11.797Z,6.4
2023-04-22T07:23:20.328Z,5.7
2023-04-22T07:24:28.659Z,5.7
2023-04-22T07:25:37.018Z,5.7
2023-04-22T07:26:45.561Z,5.6
2023-04-22T07:27:53.894Z,5.6
2023-04-22T07:29:02.238Z,5.6
2023-04-22T07:30:10.779Z,5.6
2023-04-22T07:31:19.198Z,5.6
2023-04-22T07:32:27.472Z,5.6
2023-04-22T07:33:35.982Z,5.8
2023-04-22T07:34:44.324Z,5.8
2023-04-22T07:35:52.662Z,5.8
2023-04-22T07:37:01.223Z,5.5
2023-04-22T07:38:10.192Z,5.5
2023-04-22T07:39:17.864Z,5.5
2023-04-22T07:40:26.408Z,5.8
2023-04-22T07:41:34.741Z,5.8
2023-04-22T07:42:43.087Z,5.8
2023-04-22T07:43:51.618Z,5.8
2023-04-22T07:44:59.953Z,5.8
2023-04-22T07:46:08.307Z,5.8
2023-04-22T07:47:16.825Z,5.4
2023-04-22T07:48:25.246Z,5.4
2023-04-22T07:49:33.574Z,5.4
2023-04-22T07:50:42.112Z,6
2023-04-22T07:51:50.449Z,6
2023-04-22T07:52:58.795Z,6
2023-04-22T07:54:07.318Z,6.2
2023-04-22T07:55:15.659Z,6.2
2023-04-22T07:56:23.987Z,6.2
2023-04-22T07:57:32.524Z,6.1
2023-04-22T07:58:40.850Z,6.1
2023-04-22T07:59:49.202Z,6.1
2023-04-22T08:00:57.751Z,6
2023-04-22T08:02:06.149Z,6
2023-04-22T08:03:14.511Z,6
2023-04-22T08:04:23.301Z,6.6
2023-04-22T08:05:31.297Z,6.6
2023-04-22T08:06:39.637Z,6.6
2023-04-22T08:07:48.173Z,6.1
2023-04-22T08:08:56.499Z,6.1
2023-04-22T08:10:04.829Z,6.1
2023-04-22T08:11:13.403Z,5.1
2023-04-22T08:12:21.705Z,5.1
2023-04-22T08:13:30.036Z,5.1
2023-04-22T08:14:38.607Z,4.7
2023-04-22T08:15:46.958Z,4.7
2023-04-22T08:16:55.268Z,4.7
2023-04-22T08:18:03.831Z,5.1
2023-04-22T08:19:12.140Z,5.1
2023-04-22T08:20:20.478Z,5.1
2023-04-22T08:21:29.013Z,5
2023-04-22T08:22:37.377Z,5
2023-04-22T08:23:45.723Z,5
2023-04-22T08:24:54.292Z,4.9
2023-04-22T08:26:02.594Z,4.9
2023-04-22T08:27:10.938Z,4.9
2023-04-22T08:28:19.483Z,4
2023-04-22T08:29:27.836Z,4
2023-04-22T08:30:36.169Z,4
2023-04-22T08:31:44.748Z,5.1
2023-04-22T08:32:53.062Z,5.1
2023-04-22T08:34:01.402Z,5.1
2023-04-22T08:35:09.951Z,4.9
2023-04-22T08:36:18.271Z,4.9
2023-04-22T08:37:26.588Z,4.9
2023-04-22T08:38:35.133Z,4.6
2023-04-22T08:39:43.472Z,4.6
2023-04-22T08:40:51.836Z,4.6
2023-04-22T08:42:00.358Z,4.7
2023-04-22T08:43:08.677Z,4.7
2023-04-22T08:44:17.018Z,4.7
2023-04-22T08:45:25.557Z,5.1
2023-04-22T08:46:33.907Z,5.1
2023-04-22T08:47:42.265Z,5.1
2023-04-22T08:48:50.806Z,5.2
2023-04-22T08:49:59.115Z,5.2
2023-04-22T08:51:07.456Z,5.2
2023-04-22T08:52:16.010Z,4.9
2023-04-22T08:53:24.945Z,4.9
2023-04-22T08:54:32.713Z,4.9
2023-04-22T08:55:41.276Z,4.7
2023-04-22T08:56:49.676Z,4.7
2023-04-22T08:57:57.945Z,4.7
2023-04-22T08:59:07.915Z,4
2023-04-22T09:00:16.247Z,4
2023-04-22T09:01:24.587Z,4
2023-04-22T09:02:33.131Z,4.4
2023-04-22T09:03:41.485Z,4.4
2023-04-22T09:04:49.802Z,4.4
2023-04-22T09:05:58.354Z,4.8
2023-04-22T09:07:06.680Z,4.8
2023-04-22T09:08:15.013Z,4.8
2023-04-22T09:09:23.567Z,4.4
2023-04-22T09:10:33.603Z,4.4
2023-04-22T09:11:40.238Z,4.4
2023-04-22T09:12:48.797Z,4.5
2023-04-22T09:13:57.133Z,4.5
2023-04-22T09:15:05.454Z,4.5
2023-04-22T09:16:14.024Z,4.2
2023-04-22T09:17:22.349Z,4.2
2023-04-22T09:18:30.731Z,4.2
2023-04-22T09:19:39.444Z,4.8
2023-04-22T09:20:47.559Z,4.8
2023-04-22T09:21:55.903Z,4.8
2023-04-22T09:23:04.456Z,4.3
2023-04-22T09:24:12.798Z,4.3
2023-04-22T09:25:21.160Z,4.3
2023-04-22T09:26:29.697Z,3.8
2023-04-22T09:27:38.028Z,3.8
2023-04-22T09:28:46.401Z,3.8
2023-04-22T09:29:54.935Z,4.4
2023-04-22T09:31:03.292Z,4.4
2023-04-22T09:32:11.715Z,4.4
2023-04-22T09:33:20.229Z,3.3
2023-04-22T09:34:28.582Z,3.3
2023-04-22T09:35:36.912Z,3.3
2023-04-22T09:36:45.471Z,3.4
2023-04-22T09:37:53.810Z,3.4
2023-04-22T09:39:02.155Z,3.4
2023-04-22T09:40:10.714Z,3.5
2023-04-22T09:41:19.042Z,3.5
2023-04-22T09:42:27.416Z,3.5
2023-04-22T09:43:36.028Z,3.5
2023-04-22T09:44:44.444Z,3.5
2023-04-22T09:45:52.813Z,3.5
2023-04-22T09:47:01.377Z,3.1
2023-04-22T09:48:09.824Z,3.1
2023-04-22T09:49:18.182Z,3.1
2023-04-22T09:50:26.786Z,2.9
2023-04-22T09:51:35.171Z,2.9
2023-04-22T09:52:43.554Z,2.9
2023-04-22T09:53:52.193Z,3.4
2023-04-22T09:55:00.632Z,3.4
2023-04-22T09:56:09.010Z,3.4
2023-04-22T09:57:17.601Z,3
2023-04-22T09:58:26.006Z,3
2023-04-22T09:59:34.416Z,3
2023-04-22T10:00:43.081Z,3.5
2023-04-22T10:01:51.430Z,3.5
2023-04-22T10:02:59.895Z,3.5
2023-04-22T10:04:08.461Z,3.7
2023-04-22T10:05:16.788Z,3.7
2023-04-22T10:06:25.151Z,3.7
2023-04-22T10:07:33.839Z,3.8
2023-04-22T10:08:42.164Z,3.8
2023-04-22T10:09:50.575Z,3.8
2023-04-22T10:10:59.149Z,3.9
2023-04-22T10:12:07.556Z,3.9
2023-04-22T10:13:15.917Z,3.9
2023-04-22T10:14:24.517Z,4.4
2023-04-22T10:15:32.920Z,4.4
2023-04-22T10:16:41.368Z,4.4
2023-04-22T10:17:49.908Z,4.4
2023-04-22T10:18:58.293Z,4.4
2023-04-22T10:20:06.699Z,4.4
2023-04-22T10:21:15.299Z,4.4
2023-04-22T10:22:23.711Z,4.4
2023-04-22T10:23:32.052Z,4.4
2023-04-22T10:24:40.660Z,3.9
2023-04-22T10:25:49.027Z,3.9
2023-04-22T10:26:57.423Z,3.9
2023-04-22T10:28:06.024Z,4
2023-04-22T10:29:14.386Z,4
2023-04-22T10:30:22.757Z,4
2023-04-22T10:31:31.422Z,2.2
2023-04-22T10:32:39.767Z,2.2
2023-04-22T10:33:48.144Z,2.2
2023-04-22T10:34:56.734Z,2.1
2023-04-22T10:36:05.120Z,2.1
2023-04-22T10:37:13.521Z,2.1
2023-04-22T10:38:22.093Z,2.1
2023-04-22T10:39:30.484Z,2.1
2023-04-22T10:40:38.866Z,2.1
2023-04-22T10:41:47.496Z,2.2
2023-04-22T10:42:55.901Z,2.2
2023-04-22T10:44:04.290Z,2.2
2023-04-22T10:45:12.867Z,1.7
2023-04-22T10:46:21.326Z,1.7
2023-04-22T10:47:29.749Z,1.7
2023-04-22T10:48:38.330Z,2.3
2023-04-22T10:49:46.695Z,2.3
2023-04-22T10:50:55.078Z,2.3
2023-04-22T10:52:03.678Z,2.4
2023-04-22T10:53:12.066Z,2.4
2023-04-22T10:54:20.461Z,2.4
2023-04-22T10:55:29.055Z,2.4
2023-04-22T10:56:39.150Z,2.4
2023-04-22T10:57:45.868Z,2.4
2023-04-22T10:58:54.455Z,2.6
2023-04-22T11:00:02.836Z,2.6
2023-04-22T11:01:11.299Z,2.6
2023-04-22T11:02:19.879Z,2.7
2023-04-22T11:03:28.682Z,2.7
2023-04-22T11:04:36.688Z,2.7
2023-04-22T11:05:45.233Z,2.8
2023-04-22T11:06:53.644Z,2.8
2023-04-22T11:08:02.060Z,2.8
2023-04-22T11:09:10.622Z,2.3
2023-04-22T11:10:19.042Z,2.3
2023-04-22T11:11:27.425Z,2.3
2023-04-22T11:12:36.028Z,2.2
2023-04-22T11:13:44.374Z,2.2
2023-04-22T11:14:52.752Z,2.2
2023-04-22T11:16:01.372Z,2.1
2023-04-22T11:17:09.683Z,2.1
2023-04-22T11:18:18.637Z,2.1
2023-04-22T11:19:27.187Z,2.3
2023-04-22T11:20:35.597Z,2.3
2023-04-22T11:21:43.977Z,2.3
2023-04-22T11:22:52.565Z,2.8
2023-04-22T11:24:00.975Z,2.8
2023-04-22T11:25:09.344Z,2.8
2023-04-22T11:26:17.964Z,2.8
2023-04-22T11:27:26.394Z,2.8
2023-04-22T11:28:34.737Z,2.8
2023-04-22T11:29:43.325Z,2.9
2023-04-22T11:30:51.711Z,2.9
2023-04-22T11:32:00.130Z,2.9
2023-04-22T11:33:08.671Z,3.1
2023-04-22T11:34:17.040Z,3.1
2023-04-22T11:35:25.381Z,3.1
2023-04-22T11:36:33.984Z,2.8
2023-04-22T11:37:42.345Z,2.8
2023-04-22T11:38:50.703Z,2.8
2023-04-22T11:40:17.208Z,2.1
2023-04-22T11:41:07.664Z,2.1
2023-04-22T11:42:16.061Z,2.1
2023-04-22T11:43:24.636Z,2.4
2023-04-22T11:44:33.050Z,2.4
2023-04-22T11:45:41.474Z,2.4
2023-04-22T11:46:49.987Z,2.8
2023-04-22T11:47:58.485Z,2.8
2023-04-22T11:49:06.755Z,2.8
2023-04-22T11:50:15.348Z,2.9
2023-04-22T11:51:23.708Z,2.9
2023-04-22T11:52:32.091Z,2.9
2023-04-22T11:53:40.661Z,2.5
2023-04-22T11:54:49.023Z,2.5
2023-04-22T11:55:57.427Z,2.5
2023-04-22T11:57:05.992Z,2.6
2023-04-22T11:58:14.346Z,2.6
2023-04-22T11:59:22.721Z,2.6
2023-04-22T12:00:31.334Z,2.8
2023-04-22T12:01:39.800Z,2.8
2023-04-22T12:02:48.302Z,2.8
2023-04-22T12:03:56.860Z,2.5
2023-04-22T12:05:05.211Z,2.5
2023-04-22T12:06:13.576Z,2.5
2023-04-22T12:07:22.183Z,2.3
2023-04-22T12:08:30.681Z,2.3
2023-04-22T12:09:39.177Z,2.3
2023-04-22T12:10:47.681Z,2.3
2023-04-22T12:11:56.120Z,2.3
2023-04-22T12:13:04.572Z,2.3
2023-04-22T12:14:13.204Z,2.4
2023-04-22T12:15:21.591Z,2.4
2023-04-22T12:16:30.034Z,2.4
2023-04-22T12:17:38.612Z,2.5
2023-04-22T12:18:47.004Z,2.5
2023-04-22T12:19:55.383Z,2.5
2023-04-22T12:21:03.956Z,2.9
2023-04-22T12:22:12.308Z,2.9
2023-04-22T12:23:20.666Z,2.9
2023-04-22T12:24:29.281Z,2.6
2023-04-22T12:25:37.600Z,2.6
2023-04-22T12:26:45.982Z,2.6
2023-04-22T12:27:54.539Z,2.4
2023-04-22T12:29:02.896Z,2.4
2023-04-22T12:30:11.264Z,2.4
2023-04-22T12:31:19.865Z,2.6
2023-04-22T12:32:28.177Z,2.6
2023-04-22T12:33:36.609Z,2.6
2023-04-22T12:34:45.166Z,2.5
2023-04-22T12:35:53.534Z,2.5
2023-04-22T12:37:01.898Z,2.5
2023-04-22T12:38:10.495Z,2.7
2023-04-22T12:39:18.921Z,2.7
2023-04-22T12:40:27.296Z,2.7
2023-04-22T12:41:35.878Z,2.8
2023-04-22T12:42:44.256Z,2.8
2023-04-22T12:43:52.918Z,2.8
2023-04-22T12:45:01.275Z,2.9
2023-04-22T12:46:09.673Z,2.9
2023-04-22T12:47:18.145Z,2.9
2023-04-22T12:48:26.624Z,2.7
2023-04-22T12:49:34.991Z,2.7
2023-04-22T12:50:43.461Z,2.7
2023-04-22T12:51:52.026Z,3.4
2023-04-22T12:53:00.412Z,3.4
2023-04-22T12:54:08.769Z,3.4
2023-04-22T12:55:17.431Z,3.1
2023-04-22T12:56:25.842Z,3.1
2023-04-22T12:57:34.181Z,3.1
2023-04-22T12:58:42.806Z,3.4
2023-04-22T12:59:51.186Z,3.4
2023-04-22T13:00:59.546Z,3.4
2023-04-22T13:02:08.227Z,3.5
2023-04-22T13:03:16.663Z,3.5
2023-04-22T13:04:25.030Z,3.5
2023-04-22T13:05:33.593Z,3.2
2023-04-22T13:06:43.654Z,3.2
2023-04-22T13:08:03.784Z,3.2
2023-04-22T13:08:58.921Z,3.3
2023-04-22T13:10:07.295Z,3.3
2023-04-22T13:11:15.694Z,3.3
2023-04-22T13:12:24.300Z,3.2
2023-04-22T13:13:32.648Z,3.2
2023-04-22T13:14:41.085Z,3.2
2023-04-22T13:15:49.786Z,2.8
2023-04-22T13:16:58.110Z,2.8
2023-04-22T13:18:06.755Z,2.8
2023-04-22T13:19:15.183Z,2.8
2023-04-22T13:20:23.585Z,2.8
2023-04-22T13:21:31.989Z,2.8
2023-04-22T13:22:40.644Z,2.8
2023-04-22T13:23:49.079Z,2.8
2023-04-22T13:24:57.511Z,2.8
2023-04-22T13:26:06.144Z,3.1
2023-04-22T13:27:14.566Z,3.1
2023-04-22T13:28:23.004Z,3.1
2023-04-22T13:29:31.600Z,2.6
2023-04-22T13:30:40.039Z,2.6
2023-04-22T13:31:48.470Z,2.6
2023-04-22T13:32:57.095Z,2.6
2023-04-22T13:34:05.430Z,2.6
2023-04-22T13:35:13.791Z,2.6
2023-04-22T13:36:22.408Z,2.9
2023-04-22T13:37:30.792Z,2.9
2023-04-22T13:38:39.174Z,2.9
2023-04-22T13:39:47.781Z,2.7
2023-04-22T13:40:56.122Z,2.7
2023-04-22T13:42:04.518Z,2.7
2023-04-22T13:43:13.113Z,2.9
2023-04-22T13:44:21.524Z,2.9
2023-04-22T13:45:29.978Z,2.9
2023-04-22T13:46:38.472Z,2.6
2023-04-22T13:47:46.901Z,2.6
2023-04-22T13:48:55.238Z,2.6
2023-04-22T13:50:03.865Z,2.3
2023-04-22T13:51:12.258Z,2.3
2023-04-22T13:52:20.624Z,2.3
2023-04-22T13:53:29.220Z,2.6
2023-04-22T13:54:37.660Z,2.6
2023-04-22T13:55:46.012Z,2.6
2023-04-22T13:56:54.605Z,2.5
2023-04-22T13:58:02.993Z,2.5
2023-04-22T13:59:11.385Z,2.5
2023-04-22T14:00:20.005Z,2.8
2023-04-22T14:01:28.381Z,2.8
2023-04-22T14:02:36.758Z,2.8
2023-04-22T14:03:45.324Z,2.3
2023-04-22T14:04:53.679Z,2.3
2023-04-22T14:06:02.044Z,2.3
2023-04-22T14:07:10.651Z,2.2
2023-04-22T14:08:19.034Z,2.2
2023-04-22T14:09:27.411Z,2.2
2023-04-22T14:10:36.008Z,2.4
2023-04-22T14:11:44.366Z,2.4
2023-04-22T14:12:52.775Z,2.4
2023-04-22T14:14:01.329Z,2.4
2023-04-22T14:15:09.712Z,2.4
2023-04-22T14:16:18.173Z,2.4
2023-04-22T14:17:26.674Z,2.3
2023-04-22T14:18:35.028Z,2.3
2023-04-22T14:19:43.484Z,2.3
2023-04-22T14:20:52.008Z,2.3
2023-04-22T14:22:00.394Z,2.3
2023-04-22T14:23:08.763Z,2.3
2023-04-22T14:24:17.456Z,2.7
2023-04-22T14:25:25.774Z,2.7
2023-04-22T14:26:34.127Z,2.7
2023-04-22T14:27:42.739Z,2.1
2023-04-22T14:28:51.114Z,2.1
2023-04-22T14:29:59.489Z,2.1
2023-04-22T14:31:08.105Z,2.1
2023-04-22T14:32:18.165Z,2.1
2023-04-22T14:33:24.837Z,2.1
2023-04-22T14:34:33.465Z,1.8
2023-04-22T14:35:41.861Z,1.8
2023-04-22T14:36:50.219Z,1.8
2023-04-22T14:37:58.836Z,1.7
2023-04-22T14:39:07.218Z,1.7
2023-04-22T14:40:15.660Z,1.7
2023-04-22T14:41:24.263Z,1.7
2023-04-22T14:42:32.665Z,1.7
2023-04-22T14:43:41.039Z,1.7
2023-04-22T14:44:49.624Z,2
2023-04-22T14:45:58.008Z,2
2023-04-22T14:47:06.342Z,2
2023-04-22T14:48:14.945Z,2.7
2023-04-22T14:49:23.360Z,2.7
2023-04-22T14:50:31.785Z,2.7
2023-04-22T14:51:40.403Z,2.5
2023-04-22T14:52:48.843Z,2.5
2023-04-22T14:53:57.238Z,2.5
2023-04-22T14:55:15.875Z,1.8
2023-04-22T14:56:14.243Z,1.8
2023-04-22T14:57:22.679Z,1.8
2023-04-22T14:58:31.672Z,1.9
2023-04-22T14:59:39.950Z,1.9
2023-04-22T15:00:48.153Z,1.9
2023-04-22T15:01:56.853Z,1.6
2023-04-22T15:03:05.304Z,1.6
2023-04-22T15:04:13.747Z,1.6
2023-04-22T15:38:17.906Z,0
2023-04-22T15:39:26.245Z,0
2023-04-22T15:40:34.635Z,0
2023-04-22T15:41:43.232Z,1.9
2023-04-22T15:42:51.613Z,1.9
2023-04-22T15:43:59.970Z,1.9
2023-04-22T15:45:08.579Z,1.7
2023-04-22T15:46:16.984Z,1.7
2023-04-22T15:47:25.389Z,1.7
2023-04-22T15:48:33.928Z,3
2023-04-22T15:49:42.500Z,3
2023-04-22T15:50:50.684Z,3
2023-04-22T15:51:59.287Z,7.3
2023-04-22T15:54:59.592Z,7.3
2023-04-22T15:56:08.147Z,3.3
2023-04-22T15:57:16.547Z,3.3
2023-04-22T15:58:24.927Z,3.3
2023-04-22T15:59:33.512Z,3
2023-04-22T16:00:41.975Z,3
2023-04-22T16:01:50.890Z,3
2023-04-22T16:02:59.018Z,2.2
2023-04-22T16:04:07.365Z,2.2
2023-04-22T16:05:15.655Z,2.2
2023-04-22T16:06:24.267Z,2.1
2023-04-22T16:07:32.652Z,2.1
2023-04-22T16:08:41.023Z,2.1
2023-04-22T16:09:49.619Z,1.8
2023-04-22T16:10:58.002Z,1.8
2023-04-22T16:12:06.356Z,1.8
2023-04-22T16:13:14.936Z,1.8
2023-04-22T16:14:23.299Z,1.8
2023-04-22T16:15:31.687Z,1.8
2023-04-22T16:16:40.270Z,2
2023-04-22T16:17:48.640Z,2
2023-04-22T16:18:57.010Z,2
2023-04-22T16:20:05.584Z,2.3
2023-04-22T16:21:13.952Z,2.3
2023-04-22T16:22:22.300Z,2.3
2023-04-22T16:23:30.896Z,3.1